< < Back
Terminal Aerodrome Forecast


Current Version              Previous Versions:   1  2  3  4  5  6  7  8  9  

Terminal Aerodrome Forecast

394
FTUS44 KMOB 221900 AAA
TAFMOB
TAF AMD
KMOB 221952Z 2220/2318 29008KT P6SM SCT040 BKN060
      TEMPO 2222/2302 -SHRA
     FM230300 32003KT P6SM SCT025=

Latest METAR

864
SAUS80 KWBC 231500 RRA
MTRMOB
METAR KMOB 231456Z 02006KT 10SM FEW030 24/17 A2999 RMK AO2 SLP152
T02390172 51009


USA.gov is the U.S. government's official web portal to all federal, state and local government web resources and services.